Time;durP1;ratioP1;P1;durP2;ratioP2;P2;SDS_P1;SDS_P2;PMS_P1;PMS_P2;Temp;Humidity;BMP_temperature;BMP_pressure;BME280_temperature;BME280_humidity;BME280_pressure;Samples;Min_cycle;Max_cycle;Signal;HPM_P1;HPM_P2
2023/08/24 00:00:56;;;;;;;11.65;9.48;;;16.10;99.90;;;;;;4955233;29;20015;-83
2023/08/24 00:03:22;;;;;;;12.25;10.98;;;16.00;99.90;;;;;;4944725;29;20393;-81
2023/08/24 00:05:48;;;;;;;15.35;12.15;;;16.00;99.90;;;;;;4946517;29;20023;-84
2023/08/24 00:08:14;;;;;;;18.45;12.25;;;16.00;99.90;;;;;;4954960;29;20039;-82
2023/08/24 00:10:46;;;;;;;15.75;11.77;;;15.90;99.90;;;;;;4933271;29;20086;-82
2023/08/24 00:13:12;;;;;;;17.08;13.20;;;15.90;99.90;;;;;;4953414;29;20057;-83
2023/08/24 00:15:39;;;;;;;14.80;12.38;;;15.90;99.90;;;;;;4936033;29;20027;-82
2023/08/24 00:18:05;;;;;;;13.98;12.30;;;15.90;99.90;;;;;;4939159;29;20031;-82
2023/08/24 00:20:34;;;;;;;18.67;12.93;;;15.90;99.90;;;;;;4957177;29;20015;-82
2023/08/24 00:23:01;;;;;;;17.65;13.60;;;15.90;99.90;;;;;;4940023;29;20032;-82
2023/08/24 00:25:27;;;;;;;14.93;11.80;;;15.90;99.90;;;;;;4956456;29;20481;-83
2023/08/24 00:27:54;;;;;;;15.15;11.90;;;15.90;99.90;;;;;;4957136;29;20038;-84
2023/08/24 00:30:20;;;;;;;;;;;16.00;99.90;;;;;;4949713;29;20023;-84
2023/08/24 00:32:46;;;;;;;16.38;12.15;;;16.00;99.90;;;;;;4945138;29;19992;-83
2023/08/24 00:35:12;;;;;;;13.80;11.68;;;15.90;99.90;;;;;;4933876;29;20475;-85
2023/08/24 00:37:38;;;;;;;13.18;11.15;;;16.00;99.90;;;;;;4942448;29;20036;-82
2023/08/24 00:40:09;;;;;;;13.45;11.10;;;15.90;99.90;;;;;;4959095;29;20035;-83
2023/08/24 00:42:48;;;;;;;11.57;10.25;;;16.00;99.90;;;;;;4952442;29;20027;-84
2023/08/24 00:45:14;;;;;;;13.57;10.55;;;16.00;99.90;;;;;;4965842;29;20023;-84
2023/08/24 00:47:45;;;;;;;10.25;9.13;;;16.00;99.90;;;;;;4946054;29;20700;-83
2023/08/24 00:50:12;;;;;;;9.93;8.80;;;16.00;99.90;;;;;;4930289;29;20102;-83
2023/08/24 00:52:41;;;;;;;11.75;9.20;;;16.00;99.90;;;;;;4961461;29;20062;-83
2023/08/24 00:55:08;;;;;;;11.23;8.95;;;16.10;99.90;;;;;;4967873;29;20020;-83
2023/08/24 00:57:35;;;;;;;10.57;8.57;;;16.00;99.90;;;;;;4932163;29;20038;-82
2023/08/24 01:00:05;;;;;;;8.88;7.97;;;16.00;99.90;;;;;;4957114;29;20015;-83
2023/08/24 01:02:32;;;;;;;8.50;7.60;;;16.10;99.70;;;;;;4956926;29;20062;-83
2023/08/24 01:04:58;;;;;;;8.57;7.63;;;16.10;99.40;;;;;;4957547;29;20031;-83
2023/08/24 01:07:25;;;;;;;10.73;7.90;;;16.10;99.20;;;;;;4955768;28;20060;-83
2023/08/24 01:09:51;;;;;;;7.55;6.53;;;16.10;99.10;;;;;;4934909;29;20078;-83
2023/08/24 01:12:44;;;;;;;9.10;8.20;;;16.10;98.80;;;;;;4956171;29;20025;-82
2023/08/24 01:15:25;;;;;;;9.50;7.47;;;16.10;98.90;;;;;;4952630;29;20035;-82
2023/08/24 01:17:53;;;;;;;8.90;7.45;;;16.10;99.00;;;;;;4956380;29;20023;-82
2023/08/24 01:20:20;;;;;;;8.35;7.53;;;16.10;99.00;;;;;;4956150;29;20019;-83
2023/08/24 01:23:04;;;;;;;8.43;7.03;;;16.20;99.10;;;;;;4956347;29;20045;-83
2023/08/24 01:25:49;;;;;;;7.97;7.07;;;16.20;99.00;;;;;;4955824;29;20030;-83
2023/08/24 01:28:15;;;;;;;7.90;6.30;;;16.20;98.90;;;;;;4954872;28;20039;-82
2023/08/24 01:30:44;;;;;;;7.65;6.20;;;16.20;98.90;;;;;;4935809;29;20111;-82
2023/08/24 01:33:11;;;;;;;7.43;6.32;;;16.30;98.70;;;;;;4955258;29;20020;-83
2023/08/24 01:35:38;;;;;;;10.32;6.82;;;16.30;98.50;;;;;;4955785;29;20051;-83
2023/08/24 01:38:06;;;;;;;8.63;6.60;;;16.30;98.20;;;;;;4956370;29;20043;-82
2023/08/24 01:40:34;;;;;;;7.63;5.70;;;16.20;98.20;;;;;;4956555;29;20388;-83
2023/08/24 01:43:05;;;;;;;9.32;6.10;;;16.20;98.30;;;;;;4956043;29;20024;-84
2023/08/24 01:45:32;;;;;;;8.60;6.22;;;16.20;98.40;;;;;;4956055;29;20047;-84
2023/08/24 01:48:02;;;;;;;10.45;5.95;;;16.30;98.30;;;;;;4938694;29;20025;-83
2023/08/24 01:50:29;;;;;;;7.28;6.57;;;16.20;98.30;;;;;;4956050;29;20047;-82
2023/08/24 01:52:56;;;;;;;6.43;5.78;;;16.20;98.30;;;;;;4955679;29;20439;-83
2023/08/24 01:55:22;;;;;;;6.80;5.90;;;16.20;98.40;;;;;;4955299;29;20330;-83
2023/08/24 01:57:48;;;;;;;7.28;6.30;;;16.20;98.40;;;;;;4954869;29;20058;-83
2023/08/24 02:00:15;;;;;;;7.20;5.55;;;16.20;98.40;;;;;;4955619;29;20039;-84
2023/08/24 02:02:44;;;;;;;7.68;5.00;;;16.20;98.40;;;;;;4955988;29;20027;-83
2023/08/24 02:05:09;;;;;;;8.77;6.75;;;16.20;98.80;;;;;;4956300;29;20019;-82
2023/08/24 02:07:35;;;;;;;7.75;6.28;;;16.20;98.50;;;;;;4955052;29;20127;-83
2023/08/24 02:10:02;;;;;;;7.10;5.78;;;16.20;98.60;;;;;;4932566;29;20091;-82
2023/08/24 02:12:28;;;;;;;6.93;6.20;;;16.20;98.60;;;;;;4943038;29;20030;-83
2023/08/24 02:14:54;;;;;;;6.78;5.72;;;16.20;98.60;;;;;;4960929;29;20033;-84
2023/08/24 02:17:20;;;;;;;6.88;6.15;;;16.20;98.50;;;;;;4967825;29;20178;-83
2023/08/24 02:19:45;;;;;;;6.75;5.97;;;16.20;98.50;;;;;;4967245;29;20027;-83
2023/08/24 02:22:11;;;;;;;6.80;5.93;;;16.20;98.60;;;;;;4955345;28;20023;-83
2023/08/24 02:24:37;;;;;;;8.05;6.45;;;16.20;98.70;;;;;;4954969;28;20060;-83
2023/08/24 02:27:03;;;;;;;11.07;6.20;;;16.20;98.70;;;;;;4955404;29;20034;-82
2023/08/24 02:29:30;;;;;;;8.30;6.00;;;16.30;98.70;;;;;;4955287;29;20073;-82
2023/08/24 02:31:56;;;;;;;8.35;5.82;;;16.30;98.80;;;;;;4937995;29;20035;-83
2023/08/24 02:34:21;;;;;;;6.35;5.75;;;16.30;98.70;;;;;;4943960;29;20023;-83
2023/08/24 02:36:47;;;;;;;8.20;6.53;;;16.40;98.50;;;;;;4955368;29;20091;-83
2023/08/24 02:39:13;;;;;;;6.95;5.70;;;16.40;98.50;;;;;;4952236;29;20028;-84
2023/08/24 02:41:39;;;;;;;6.85;6.18;;;16.40;98.30;;;;;;4932677;29;20031;-83
2023/08/24 02:44:05;;;;;;;6.78;5.65;;;16.40;98.20;;;;;;4956957;29;20026;-84
2023/08/24 02:46:31;;;;;;;7.30;6.47;;;16.40;98.10;;;;;;4944271;29;20082;-83
2023/08/24 02:48:57;;;;;;;7.93;6.53;;;16.40;98.10;;;;;;4955410;29;20425;-83
2023/08/24 02:51:23;;;;;;;8.63;5.80;;;16.40;98.20;;;;;;4955600;29;20082;-83
2023/08/24 02:53:50;;;;;;;6.97;5.72;;;16.40;98.10;;;;;;4956534;29;20384;-83
2023/08/24 02:56:16;;;;;;;8.70;6.03;;;16.40;98.00;;;;;;4937681;29;20019;-83
2023/08/24 02:58:42;;;;;;;7.28;6.57;;;16.40;98.00;;;;;;4954464;29;20038;-83
2023/08/24 03:01:08;;;;;;;7.82;5.72;;;16.40;98.00;;;;;;4948389;29;20389;-84
2023/08/24 03:03:36;;;;;;;9.23;6.40;;;16.40;98.00;;;;;;4954724;29;20059;-83
2023/08/24 03:06:06;;;;;;;;;;;16.50;98.10;;;;;;4953041;29;20130;-82
2023/08/24 03:08:33;;;;;;;6.38;5.72;;;16.50;97.90;;;;;;4955129;29;19917;-82
2023/08/24 03:11:00;;;;;;;6.78;5.72;;;16.40;97.90;;;;;;4954370;29;20031;-82
2023/08/24 03:13:27;;;;;;;7.72;6.32;;;16.40;98.00;;;;;;4923921;29;20078;-82
2023/08/24 03:15:53;;;;;;;10.57;5.83;;;16.30;98.00;;;;;;4938517;29;20074;-81
2023/08/24 03:18:19;;;;;;;7.75;5.78;;;16.30;98.10;;;;;;4954541;29;20175;-82
2023/08/24 03:20:46;;;;;;;7.13;5.10;;;16.30;98.20;;;;;;4931555;29;20509;-82
2023/08/24 03:23:12;;;;;;;7.40;5.35;;;16.30;98.10;;;;;;4946131;29;20035;-81
2023/08/24 03:25:40;;;;;;;6.05;5.45;;;16.20;98.10;;;;;;4954095;29;20107;-81
2023/08/24 03:28:08;;;;;;;6.32;4.90;;;16.20;98.20;;;;;;4938012;29;20023;-82
2023/08/24 03:30:38;;;;;;;6.45;5.85;;;16.20;98.30;;;;;;4949682;29;20027;-83
2023/08/24 03:33:04;;;;;;;6.03;5.43;;;16.20;98.30;;;;;;4949213;29;20021;-82
2023/08/24 03:35:34;;;;;;;9.77;5.97;;;16.20;98.30;;;;;;4937036;29;20058;-83
2023/08/24 03:38:04;;;;;;;7.93;6.30;;;16.20;98.40;;;;;;4937351;29;20113;-86
2023/08/24 03:40:30;;;;;;;8.43;5.68;;;16.20;98.50;;;;;;4941000;29;20101;-82
2023/08/24 03:42:56;;;;;;;6.90;5.82;;;16.20;98.60;;;;;;4938464;29;20058;-81
2023/08/24 03:45:22;;;;;;;8.13;6.22;;;16.20;98.60;;;;;;4950569;29;20019;-81
2023/08/24 03:47:48;;;;;;;7.07;5.80;;;16.30;98.50;;;;;;4957448;29;20027;-82
2023/08/24 03:50:14;;;;;;;8.80;7.18;;;16.30;98.40;;;;;;4954464;29;20027;-83
2023/08/24 03:52:40;;;;;;;8.48;7.57;;;16.20;98.40;;;;;;4940966;29;20027;-83
2023/08/24 03:55:07;;;;;;;10.38;7.72;;;16.30;98.50;;;;;;4941117;29;20054;-83
2023/08/24 03:57:33;;;;;;;8.40;7.20;;;16.30;98.50;;;;;;4954194;29;20070;-83
2023/08/24 03:59:59;;;;;;;13.32;7.47;;;16.40;98.40;;;;;;4958427;29;20041;-84
2023/08/24 04:02:26;;;;;;;13.60;8.38;;;16.30;98.50;;;;;;4958713;29;20015;-83
2023/08/24 04:04:52;;;;;;;9.00;7.43;;;16.40;98.60;;;;;;4956374;29;20549;-83
2023/08/24 04:07:18;;;;;;;11.57;8.23;;;16.40;98.60;;;;;;4957870;29;20032;-83
2023/08/24 04:09:45;;;;;;;13.93;10.50;;;16.40;98.60;;;;;;4957473;29;20047;-82
2023/08/24 04:12:11;;;;;;;13.02;9.02;;;16.30;98.70;;;;;;4935703;29;20044;-84
2023/08/24 04:14:37;;;;;;;14.23;9.02;;;16.30;99.00;;;;;;4948970;29;20031;-84
2023/08/24 04:17:03;;;;;;;13.07;9.60;;;16.30;99.10;;;;;;4958296;29;20023;-83
2023/08/24 04:19:29;;;;;;;11.38;8.85;;;16.30;99.00;;;;;;4959000;29;20095;-83
2023/08/24 04:21:55;;;;;;;12.25;9.73;;;16.30;99.10;;;;;;4960984;29;20064;-82
2023/08/24 04:24:21;;;;;;;12.38;8.75;;;16.20;99.00;;;;;;4954062;29;20073;-84
2023/08/24 04:26:46;;;;;;;12.40;9.52;;;16.20;99.20;;;;;;4952305;29;20118;-83
2023/08/24 04:29:12;;;;;;;12.13;10.80;;;16.20;99.20;;;;;;4955912;29;20059;-83
2023/08/24 04:31:40;;;;;;;15.82;12.57;;;16.20;99.40;;;;;;4959883;29;20058;-83
2023/08/24 04:34:06;;;;;;;13.93;10.93;;;16.20;99.30;;;;;;4965328;28;20039;-83
2023/08/24 04:36:32;;;;;;;16.42;11.85;;;16.10;99.40;;;;;;4958923;29;20071;-82
2023/08/24 04:38:59;;;;;;;14.20;10.25;;;16.10;99.40;;;;;;4943727;29;20110;-83
2023/08/24 04:41:24;;;;;;;13.10;10.27;;;16.10;99.40;;;;;;4941662;29;20023;-84
2023/08/24 04:43:50;;;;;;;11.50;9.02;;;16.20;99.50;;;;;;4947844;29;20531;-83
2023/08/24 04:46:16;;;;;;;13.45;9.77;;;16.30;99.20;;;;;;4957265;29;20023;-84
2023/08/24 04:48:42;;;;;;;12.57;9.60;;;16.40;99.10;;;;;;4932360;29;20614;-84
2023/08/24 04:51:07;;;;;;;14.18;9.85;;;16.40;98.70;;;;;;4932869;29;20027;-83
2023/08/24 04:53:33;;;;;;;13.35;9.50;;;16.40;98.60;;;;;;4951579;29;20024;-82
2023/08/24 04:55:59;;;;;;;9.95;8.90;;;16.40;98.60;;;;;;4955823;29;20019;-84
2023/08/24 04:58:26;;;;;;;11.73;8.40;;;16.50;98.50;;;;;;4933457;29;20441;-85
2023/08/24 05:00:52;;;;;;;13.27;9.45;;;16.60;98.30;;;;;;4939513;29;20477;-83
2023/08/24 05:03:19;;;;;;;11.02;8.43;;;16.70;98.10;;;;;;4957207;28;20055;-83
2023/08/24 05:05:45;;;;;;;11.45;8.75;;;16.80;97.80;;;;;;4939550;29;20050;-82
2023/08/24 05:08:11;;;;;;;9.98;8.57;;;16.90;97.40;;;;;;4934427;29;20050;-84
2023/08/24 05:10:38;;;;;;;15.05;9.32;;;16.90;97.20;;;;;;4957617;29;20489;-82
2023/08/24 05:13:04;;;;;;;10.73;9.63;;;16.90;97.20;;;;;;4957590;29;20027;-83
2023/08/24 05:15:30;;;;;;;11.52;7.70;;;16.90;97.10;;;;;;4958745;29;20541;-83
2023/08/24 05:17:56;;;;;;;10.85;8.13;;;16.90;97.00;;;;;;4960820;29;20031;-83
2023/08/24 05:20:28;;;;;;;12.77;9.23;;;16.90;96.90;;;;;;4945373;29;20019;-84
2023/08/24 05:22:55;;;;;;;14.32;9.55;;;17.00;96.90;;;;;;4957739;28;20046;-84
2023/08/24 05:25:21;;;;;;;9.77;8.30;;;17.00;96.60;;;;;;4956933;29;20473;-84
2023/08/24 05:27:47;;;;;;;14.00;9.77;;;17.10;96.60;;;;;;4930238;29;20074;-84
2023/08/24 05:30:13;;;;;;;17.42;14.90;;;17.10;96.40;;;;;;4958528;29;20109;-85
2023/08/24 05:32:39;;;;;;;25.20;22.45;;;17.10;96.40;;;;;;4958837;29;20521;-82
2023/08/24 05:35:06;;;;;;;22.73;19.33;;;16.90;96.60;;;;;;4957779;29;20057;-83
2023/08/24 05:37:32;;;;;;;25.05;22.38;;;16.80;96.90;;;;;;4956473;29;20023;-85
2023/08/24 05:39:59;;;;;;;28.02;23.17;;;16.60;97.10;;;;;;4939757;29;20041;-84
2023/08/24 05:42:25;;;;;;;22.63;19.92;;;16.50;97.40;;;;;;4955881;29;20026;-83
2023/08/24 05:44:51;;;;;;;23.77;21.13;;;16.40;97.50;;;;;;4955527;29;20027;-84
2023/08/24 05:47:17;;;;;;;21.30;19.20;;;16.40;97.80;;;;;;4956004;29;20058;-86
2023/08/24 05:49:43;;;;;;;28.63;19.80;;;16.40;97.70;;;;;;4938218;29;20039;-86
2023/08/24 05:52:12;;;;;;;30.75;25.48;;;16.40;97.60;;;;;;4916272;29;20047;-83
2023/08/24 05:54:39;;;;;;;25.35;20.88;;;16.50;97.20;;;;;;4956052;29;20136;-84
2023/08/24 05:57:05;;;;;;;22.63;18.90;;;16.40;97.20;;;;;;4937692;29;20535;-85
2023/08/24 05:59:32;;;;;;;22.45;20.33;;;16.40;97.40;;;;;;4934181;29;20480;-85
2023/08/24 06:01:58;;;;;;;20.55;18.05;;;16.40;97.30;;;;;;4927439;29;20327;-87
2023/08/24 06:04:24;;;;;;;22.00;19.73;;;16.30;97.30;;;;;;4936078;29;20067;-89
2023/08/24 06:06:50;;;;;;;21.75;19.20;;;16.30;97.40;;;;;;4936416;29;20032;-88
2023/08/24 06:09:17;;;;;;;20.05;17.70;;;16.30;97.40;;;;;;4934452;29;20063;-93
2023/08/24 06:11:49;;;;;;;19.63;17.48;;;16.20;97.30;;;;;;4955153;28;20075;-88
2023/08/24 06:14:17;;;;;;;16.17;14.55;;;16.30;97.40;;;;;;4913175;28;20020;-91
2023/08/24 06:16:49;;;;;;;16.20;13.90;;;16.30;97.10;;;;;;4941264;28;20038;-87
2023/08/24 06:19:16;;;;;;;15.68;13.07;;;16.30;96.80;;;;;;4949838;29;20031;-94
2023/08/24 06:21:42;;;;;;;14.65;13.15;;;16.30;96.90;;;;;;4955810;29;20019;-93
2023/08/24 06:24:08;;;;;;;13.77;12.38;;;16.30;96.80;;;;;;4960440;29;20126;-94
2023/08/24 06:26:39;;;;;;;14.48;11.15;;;16.30;96.70;;;;;;4961849;29;20055;-96
2023/08/24 06:29:11;;;;;;;11.90;10.70;;;16.20;96.90;;;;;;4923891;28;20059;-95
2023/08/24 06:31:37;;;;;;;11.60;10.38;;;16.10;96.90;;;;;;4947056;29;20094;-95
2023/08/24 06:34:06;;;;;;;11.57;10.38;;;16.10;96.90;;;;;;4939679;29;20023;-94
2023/08/24 06:36:33;;;;;;;17.23;13.40;;;16.00;97.00;;;;;;4955692;29;20043;-95
2023/08/24 06:39:06;;;;;;;18.70;13.55;;;16.10;97.00;;;;;;4933159;29;20036;-93
2023/08/24 06:41:35;;;;;;;15.77;14.18;;;16.10;96.90;;;;;;4941135;29;20020;-94
2023/08/24 06:44:07;;;;;;;19.02;17.13;;;16.10;96.80;;;;;;4953585;28;20040;-94
2023/08/24 06:46:36;;;;;;;21.75;18.25;;;16.00;96.90;;;;;;4936222;29;20032;-94
2023/08/24 06:49:07;;;;;;;19.08;17.15;;;16.00;96.90;;;;;;4905212;29;20103;-91
2023/08/24 06:51:38;;;;;;;18.88;16.70;;;15.90;97.00;;;;;;4944652;28;20035;-92
2023/08/24 06:54:04;;;;;;;17.70;15.00;;;15.80;97.10;;;;;;4954975;29;20035;-91
2023/08/24 06:56:35;;;;;;;16.35;14.23;;;15.80;97.30;;;;;;4942315;29;20034;-93
2023/08/24 06:59:15;;;;;;;19.15;15.15;;;15.80;97.50;;;;;;4924941;29;20108;-95
2023/08/24 07:02:04;;;;;;;16.67;13.60;;;15.70;97.70;;;;;;4906579;29;20072;-93
2023/08/24 07:04:40;;;;;;;21.05;17.08;;;15.70;97.70;;;;;;4916883;29;20028;-95
2023/08/24 07:07:34;;;;;;;16.20;14.55;;;15.60;97.70;;;;;;4867843;29;20111;-94
2023/08/24 07:10:38;;;;;;;14.73;13.32;;;15.60;97.70;;;;;;4909946;29;20510;-94
2023/08/24 07:17:01;;;;;;;17.23;14.95;;;15.60;97.60;;;;;;4899620;29;20148;-91
2023/08/24 07:19:29;;;;;;;17.00;12.35;;;15.60;97.60;;;;;;4890301;29;20037;-93
2023/08/24 07:21:58;;;;;;;25.48;14.43;;;15.60;97.60;;;;;;4919589;29;20023;-94
2023/08/24 07:24:44;;;;;;;14.38;11.70;;;15.60;97.70;;;;;;4887441;29;20040;-94
2023/08/24 07:27:11;;;;;;;11.98;10.65;;;15.70;97.50;;;;;;4898982;29;20028;-95
2023/08/24 07:29:39;;;;;;;13.35;11.93;;;15.70;97.50;;;;;;4881773;29;20514;-96
2023/08/24 07:32:12;;;;;;;15.27;13.45;;;15.60;97.40;;;;;;4898125;29;20069;-93
2023/08/24 07:34:38;;;;;;;18.30;15.00;;;15.70;97.30;;;;;;4872049;29;20055;-93
2023/08/24 07:37:36;;;;;;;17.73;16.02;;;15.60;97.50;;;;;;4914727;29;20045;-94
2023/08/24 07:40:03;;;;;;;21.05;18.10;;;15.60;97.50;;;;;;4890753;29;20138;-93
2023/08/24 07:42:44;;;;;;;20.40;18.17;;;15.50;97.60;;;;;;4918452;29;20025;-94
2023/08/24 07:45:10;;;;;;;22.00;17.90;;;15.40;97.90;;;;;;4901160;29;20044;-93
2023/08/24 07:47:36;;;;;;;26.13;20.58;;;15.30;97.90;;;;;;4898691;29;20046;-94
2023/08/24 07:50:17;;;;;;;24.15;18.85;;;15.30;98.20;;;;;;4900837;29;20064;-93
2023/08/24 07:52:52;;;;;;;21.75;19.50;;;15.20;98.10;;;;;;4903145;29;20033;-94
2023/08/24 07:55:18;;;;;;;21.13;18.90;;;15.20;98.50;;;;;;4899150;29;20045;-92
2023/08/24 07:57:44;;;;;;;20.55;17.67;;;15.30;98.40;;;;;;4897056;29;20044;-94
2023/08/24 08:00:14;;;;;;;22.02;18.88;;;15.40;98.10;;;;;;4915684;29;20510;-94
2023/08/24 08:03:02;;;;;;;22.02;19.15;;;15.50;98.10;;;;;;4909602;29;20068;-93
2023/08/24 08:08:35;;;;;;;19.00;15.57;;;15.80;97.20;;;;;;4894373;29;20027;-94
2023/08/24 08:11:13;;;;;;;16.48;14.90;;;15.90;97.00;;;;;;4919907;29;20025;-85
2023/08/24 08:13:39;;;;;;;16.40;14.80;;;15.80;96.90;;;;;;4911096;29;20119;-87
2023/08/24 08:16:15;;;;;;;16.90;15.18;;;15.80;96.90;;;;;;4904057;29;20025;-94
2023/08/24 08:18:44;;;;;;;16.65;14.57;;;15.80;97.00;;;;;;4890009;29;20032;-94
2023/08/24 08:21:17;;;;;;;20.00;13.70;;;15.90;96.80;;;;;;4904289;29;20032;-92
2023/08/24 08:23:44;;;;;;;23.20;14.30;;;15.90;96.60;;;;;;4901038;29;20096;-91
2023/08/24 08:26:23;;;;;;;17.77;15.20;;;15.90;96.50;;;;;;4886101;29;20048;-94
2023/08/24 08:28:49;;;;;;;15.05;13.45;;;16.00;96.70;;;;;;4880714;29;20049;-93
2023/08/24 08:31:27;;;;;;;17.55;13.18;;;16.00;96.20;;;;;;4903414;29;20037;-96
2023/08/24 08:33:56;;;;;;;15.25;13.63;;;16.00;96.10;;;;;;4900528;29;20117;-94
2023/08/24 08:36:25;;;;;;;16.33;14.82;;;16.00;96.20;;;;;;4910343;29;20049;-95
2023/08/24 08:38:51;;;;;;;18.48;15.77;;;15.90;96.10;;;;;;4917229;29;20048;-95
2023/08/24 08:41:54;;;;;;;20.73;17.15;;;15.90;96.30;;;;;;4919195;29;20037;-93
2023/08/24 08:44:39;;;;;;;16.52;14.85;;;15.90;96.50;;;;;;4893263;29;20033;-87
2023/08/24 08:48:10;;;;;;;15.18;13.75;;;15.90;96.40;;;;;;4927918;28;20031;-92
2023/08/24 08:51:02;;;;;;;16.65;14.95;;;16.00;96.20;;;;;;4915186;28;20031;-93
2023/08/24 08:53:36;;;;;;;18.25;16.50;;;16.00;96.10;;;;;;4970354;28;20019;-91
2023/08/24 08:56:06;;;;;;;20.73;18.38;;;16.00;96.30;;;;;;4933087;29;20023;-91
2023/08/24 09:01:50;;;;;;;19.77;17.88;;;16.00;96.30;;;;;;5598390;23;20043;-93
2023/08/24 09:04:17;;;;;;;22.33;17.42;;;16.00;96.20;;;;;;4978747;28;20028;-88
2023/08/24 09:09:41;;;;;;;16.63;13.82;;;16.10;96.00;;;;;;4961113;28;20196;-91
2023/08/24 09:12:08;;;;;;;20.98;16.90;;;16.20;95.40;;;;;;4960280;29;20074;-93
2023/08/24 09:14:35;;;;;;;19.88;15.15;;;16.20;95.20;;;;;;4957037;29;20144;-96
2023/08/24 09:17:47;;;;;;;17.73;15.93;;;16.30;95.30;;;;;;4955717;28;20027;-96
2023/08/24 09:20:47;;;;;;;20.00;16.58;;;16.40;95.00;;;;;;4979239;28;20043;-84
2023/08/24 09:27:25;;;;;;;16.77;14.75;;;16.80;94.60;;;;;;4969866;28;20030;-93
2023/08/24 09:30:18;;;;;;;18.83;15.23;;;17.00;93.90;;;;;;4945097;29;20057;-96
2023/08/24 09:32:53;;;;;;;18.08;15.73;;;16.90;93.70;;;;;;4918976;29;20032;-95
2023/08/24 09:35:36;;;;;;;19.80;16.90;;;16.70;93.80;;;;;;4924110;29;20136;-93
2023/08/24 09:38:22;;;;;;;17.52;15.82;;;16.60;94.10;;;;;;4934570;29;20032;-92
2023/08/24 09:40:51;;;;;;;20.13;15.07;;;16.70;94.30;;;;;;4939114;29;20035;-94
2023/08/24 09:43:17;;;;;;;19.70;15.50;;;16.50;94.30;;;;;;4961120;29;20052;-93
2023/08/24 09:46:47;;;;;;;16.38;14.68;;;16.40;94.50;;;;;;4963911;28;20031;-93
2023/08/24 09:49:22;;;;;;;13.30;12.07;;;16.30;94.60;;;;;;4933817;28;20055;-88
2023/08/24 09:52:11;;;;;;;11.32;10.18;;;16.20;94.90;;;;;;4961576;28;20039;-91
2023/08/24 09:54:47;;;;;;;13.13;11.75;;;16.20;94.60;;;;;;4963785;28;20063;-90
2023/08/24 09:57:41;;;;;;;11.80;10.57;;;16.30;94.60;;;;;;4905941;29;20047;-93
2023/08/24 10:02:57;;;;;;;14.38;12.68;;;16.60;94.20;;;;;;5155819;23;20051;-96
2023/08/24 10:05:49;;;;;;;21.17;13.73;;;16.70;94.00;;;;;;4944919;29;20015;-95
2023/08/24 10:09:04;;;;;;;19.60;11.27;;;16.90;93.70;;;;;;4996658;28;20030;-96
2023/08/24 10:12:04;;;;;;;15.20;12.75;;;17.10;93.20;;;;;;4941279;29;20064;-95
2023/08/24 10:15:11;;;;;;;14.48;11.18;;;17.20;92.80;;;;;;4942161;29;20020;-93
2023/08/24 10:17:49;;;;;;;16.20;12.45;;;17.20;92.80;;;;;;4904150;29;20055;-93
2023/08/24 10:20:25;;;;;;;13.27;10.43;;;17.30;92.60;;;;;;4904030;29;20495;-96
2023/08/24 10:24:00;;;;;;;24.23;19.38;;;17.40;92.20;;;;;;4894486;29;20105;-95
2023/08/24 10:27:33;;;;;;;12.45;11.15;;;17.40;92.10;;;;;;4814795;29;20038;-89
2023/08/24 10:30:24;;;;;;;14.30;11.98;;;17.40;92.00;;;;;;4808342;29;20123;-93
2023/08/24 10:33:53;;;;;;;10.63;9.32;;;17.50;92.00;;;;;;4808721;29;20472;-95
2023/08/24 10:37:12;;;;;;;10.50;9.02;;;17.40;91.60;;;;;;4802874;29;20127;-94
2023/08/24 10:40:16;;;;;;;10.35;9.30;;;17.30;91.80;;;;;;4755469;30;20049;-95
2023/08/24 10:43:13;;;;;;;14.93;10.10;;;17.30;91.90;;;;;;4758967;30;20032;-96
2023/08/24 10:46:06;;;;;;;17.45;10.85;;;17.20;92.00;;;;;;4740899;30;20045;-95
2023/08/24 10:48:45;;;;;;;8.48;7.63;;;17.30;92.00;;;;;;4738010;30;20116;-92
2023/08/24 10:51:45;;;;;;;11.23;7.43;;;17.30;91.90;;;;;;4753011;30;20036;-95
2023/08/24 10:54:15;;;;;;;7.22;5.68;;;17.30;91.80;;;;;;4767313;29;20044;-88
2023/08/24 10:57:33;;;;;;;5.85;4.85;;;17.40;91.60;;;;;;4774358;30;20078;-93
2023/08/24 11:03:33;;;;;;;10.70;5.68;;;17.60;91.10;;;;;;5338341;23;20083;-95
2023/08/24 11:06:39;;;;;;;7.57;5.32;;;17.60;90.60;;;;;;4995529;28;20070;-94
2023/08/24 11:09:21;;;;;;;13.10;7.25;;;17.70;90.50;;;;;;4925358;28;20044;-93
2023/08/24 11:12:05;;;;;;;7.53;5.03;;;17.70;90.40;;;;;;4981423;28;20022;-93
2023/08/24 11:17:37;;;;;;;6.63;5.93;;;17.70;90.30;;;;;;5107199;23;20070;-92
2023/08/24 11:20:07;;;;;;;7.43;5.88;;;17.50;90.30;;;;;;5017963;28;20033;-93
2023/08/24 11:23:18;;;;;;;6.20;5.17;;;17.50;90.40;;;;;;5017203;28;20038;-86
2023/08/24 11:26:05;;;;;;;6.68;5.97;;;17.40;90.60;;;;;;4976075;28;20037;-95
2023/08/24 11:28:54;;;;;;;6.05;5.20;;;17.30;90.50;;;;;;4962644;29;20188;-85
2023/08/24 11:31:24;;;;;;;7.90;5.30;;;17.30;90.30;;;;;;4978949;28;20031;-95
2023/08/24 11:41:45;;;;;;;5.80;4.60;;;17.50;89.90;;;;;;4973078;28;20046;-91
2023/08/24 11:47:42;;;;;;;10.90;5.10;;;17.80;89.20;;;;;;4992220;28;20049;-96
2023/08/24 11:50:09;;;;;;;5.82;4.35;;;17.90;88.80;;;;;;5001027;28;20109;-90
2023/08/24 11:52:44;;;;;;;11.82;8.23;;;18.00;88.50;;;;;;5001228;28;20047;-94
2023/08/24 11:55:24;;;;;;;6.00;4.57;;;18.00;88.40;;;;;;4977648;28;20063;-95
2023/08/24 11:57:56;;;;;;;7.70;5.07;;;17.90;88.10;;;;;;4980003;28;20037;-93
2023/08/24 12:01:04;;;;;;;11.75;5.18;;;17.80;88.60;;;;;;4966470;28;20045;-93
2023/08/24 12:03:51;;;;;;;6.43;3.80;;;17.70;88.30;;;;;;4994868;28;20075;-91
2023/08/24 12:06:23;;;;;;;8.97;5.33;;;17.70;87.60;;;;;;4963277;28;20026;-95
2023/08/24 12:08:55;;;;;;;6.07;4.68;;;17.60;87.90;;;;;;4982827;28;20311;-94
2023/08/24 12:11:36;;;;;;;8.75;4.38;;;17.60;87.40;;;;;;5015648;28;20557;-95
2023/08/24 12:14:06;;;;;;;7.20;3.97;;;17.70;86.60;;;;;;5008337;28;20062;-93
2023/08/24 12:16:35;;;;;;;8.27;5.35;;;17.80;86.30;;;;;;4965618;28;20034;-93
2023/08/24 12:19:04;;;;;;;8.13;4.25;;;17.80;85.90;;;;;;4996078;28;20086;-92
2023/08/24 12:21:31;;;;;;;9.35;3.60;;;17.70;85.90;;;;;;4982339;28;20035;-91
2023/08/24 12:24:05;;;;;;;4.63;3.53;;;17.70;86.00;;;;;;5010395;28;20468;-94
2023/08/24 12:26:36;;;;;;;3.67;2.90;;;17.70;85.70;;;;;;4996952;28;20070;-93
2023/08/24 12:29:27;;;;;;;5.35;3.72;;;17.70;85.60;;;;;;5002272;28;20042;-91
2023/08/24 12:32:01;;;;;;;4.10;2.75;;;17.70;85.70;;;;;;4988718;28;20038;-94
2023/08/24 12:35:06;;;;;;;3.35;2.72;;;17.80;85.80;;;;;;4961569;28;20084;-94
2023/08/24 12:37:34;;;;;;;7.25;3.08;;;17.90;85.50;;;;;;4948741;29;20059;-93
2023/08/24 12:40:17;;;;;;;7.18;3.13;;;18.00;84.90;;;;;;4978846;28;20035;-96
2023/08/24 12:43:06;;;;;;;4.45;2.53;;;18.20;84.60;;;;;;4955533;28;20087;-95
2023/08/24 12:45:40;;;;;;;3.90;2.45;;;18.50;83.30;;;;;;4995856;28;20091;-93
2023/08/24 12:48:34;;;;;;;5.75;2.60;;;18.60;81.80;;;;;;4968972;28;20010;-87
2023/08/24 12:51:02;;;;;;;6.30;3.15;;;18.50;81.70;;;;;;4982309;28;20039;-94
2023/08/24 12:53:46;;;;;;;4.32;2.70;;;18.60;81.80;;;;;;4965621;28;20027;-96
2023/08/24 12:56:13;;;;;;;4.53;2.80;;;18.70;81.80;;;;;;4982160;28;20043;-95
2023/08/24 12:59:03;;;;;;;5.37;2.57;;;18.70;81.40;;;;;;4966029;28;20031;-96
2023/08/24 13:01:58;;;;;;;6.55;3.40;;;18.60;81.10;;;;;;4966028;28;20106;-94
2023/08/24 13:04:50;;;;;;;6.03;3.67;;;18.70;82.00;;;;;;4971252;28;20031;-94
2023/08/24 13:07:51;;;;;;;17.20;7.63;;;18.70;81.10;;;;;;4955637;28;20050;-96
2023/08/24 13:10:50;;;;;;;6.95;3.40;;;18.80;81.60;;;;;;4947845;28;20051;-94
2023/08/24 13:13:35;;;;;;;4.10;2.88;;;18.90;80.90;;;;;;5000205;28;20023;-94
2023/08/24 13:16:29;;;;;;;3.67;2.47;;;18.80;80.00;;;;;;4983588;28;20062;-93
2023/08/24 13:19:20;;;;;;;7.05;3.38;;;18.70;80.80;;;;;;4950091;28;20099;-91
2023/08/24 13:25:28;;;;;;;4.85;2.75;;;18.50;81.30;;;;;;4965367;28;20078;-93
2023/08/24 13:28:38;;;;;;;8.35;3.72;;;18.40;81.10;;;;;;4991012;28;20054;-90
2023/08/24 13:31:34;;;;;;;6.72;3.17;;;18.40;81.90;;;;;;4983820;28;20030;-90
2023/08/24 13:34:35;;;;;;;3.88;2.65;;;18.60;81.20;;;;;;4984220;28;20015;-84
2023/08/24 13:37:10;;;;;;;7.05;3.10;;;18.50;80.60;;;;;;4960608;28;20016;-92
2023/08/24 13:40:07;;;;;;;4.35;2.70;;;18.50;80.80;;;;;;4941055;29;20030;-88
2023/08/24 13:42:46;;;;;;;4.60;2.80;;;18.60;80.90;;;;;;4910537;29;20020;-94
2023/08/24 13:45:21;;;;;;;7.15;2.80;;;18.60;80.50;;;;;;4936672;29;20032;-91
2023/08/24 13:48:24;;;;;;;4.13;2.88;;;18.50;80.00;;;;;;4902647;29;20056;-95
2023/08/24 13:51:00;;;;;;;2.50;2.30;;;18.60;80.50;;;;;;4898875;29;20103;-93
2023/08/24 13:53:44;;;;;;;3.75;2.63;;;18.50;80.20;;;;;;4895965;29;20040;-93
2023/08/24 13:56:28;;;;;;;4.60;2.80;;;18.40;80.80;;;;;;4845816;29;20030;-94